createdAt,value
2022-11-06T00:00:34.504Z,101345.88
2022-11-06T00:03:01.112Z,101346.69
2022-11-06T00:05:27.636Z,101338.84
2022-11-06T00:07:53.964Z,101346.94
2022-11-06T00:10:20.230Z,101343.41
2022-11-06T00:12:46.490Z,101349.88
2022-11-06T00:15:12.779Z,101355.47
2022-11-06T00:17:39.057Z,101349.25
2022-11-06T00:20:05.336Z,101342.84
2022-11-06T00:22:31.589Z,101350.94
2022-11-06T00:24:57.812Z,101348.66
2022-11-06T00:27:24.272Z,101344.06
2022-11-06T00:29:50.743Z,101348.66
2022-11-06T00:32:17.223Z,101352.44
2022-11-06T00:34:43.831Z,101348.06
2022-11-06T00:37:10.118Z,101355.13
2022-11-06T00:39:36.593Z,101350.75
2022-11-06T00:42:02.859Z,101348.06
2022-11-06T00:44:29.247Z,101351.81
2022-11-06T00:46:55.531Z,101346.41
2022-11-06T00:49:21.801Z,101346.63
2022-11-06T00:51:48.107Z,101337.75
2022-11-06T00:54:14.335Z,101338.78
2022-11-06T00:56:40.760Z,101338.19
2022-11-06T00:59:07.109Z,101337.13
2022-11-06T01:01:33.526Z,101339.03
2022-11-06T01:04:00.411Z,101343.81
2022-11-06T01:06:26.723Z,101343.81
2022-11-06T01:08:53.094Z,101342.16
2022-11-06T01:11:19.360Z,101338.63
2022-11-06T01:13:45.655Z,101334.28
2022-11-06T01:16:12.044Z,101334.50
2022-11-06T01:18:38.346Z,101333.47
2022-11-06T01:21:04.580Z,101338.28
2022-11-06T01:23:30.892Z,101338.28
2022-11-06T01:25:57.174Z,101329.56
2022-11-06T01:28:23.460Z,101336.84
2022-11-06T01:30:49.736Z,101334.97
2022-11-06T01:33:16.066Z,101331.47
2022-11-06T01:35:42.394Z,101332.50
2022-11-06T01:38:08.652Z,101320.28
2022-11-06T01:40:34.976Z,101321.13
2022-11-06T01:43:01.288Z,101320.53
2022-11-06T01:45:27.593Z,101317.00
2022-11-06T01:47:54.073Z,101327.56
2022-11-06T01:50:20.374Z,101323.22
2022-11-06T01:52:46.592Z,101322.63
2022-11-06T01:55:12.945Z,101322.84
2022-11-06T01:57:39.482Z,101319.13
2022-11-06T02:00:05.860Z,101320.13
2022-11-06T02:02:32.342Z,101323.88
2022-11-06T02:04:58.805Z,101318.50
2022-11-06T02:07:26.973Z,101320.34
2022-11-06T02:09:53.322Z,101310.63
2022-11-06T02:12:19.740Z,101312.53
2022-11-06T02:14:46.130Z,101316.25
2022-11-06T02:17:12.664Z,101318.13
2022-11-06T02:19:39.031Z,101312.75
2022-11-06T02:22:05.354Z,101312.97
2022-11-06T02:24:31.795Z,101302.19
2022-11-06T02:26:58.208Z,101300.53
2022-11-06T02:29:24.527Z,101304.25
2022-11-06T02:31:50.966Z,101303.25
2022-11-06T02:34:17.351Z,101299.13
2022-11-06T02:36:43.574Z,101295.59
2022-11-06T02:39:09.981Z,101293.72
2022-11-06T02:41:36.521Z,101293.13
2022-11-06T02:44:02.878Z,101285.03
2022-11-06T02:46:29.199Z,101287.72
2022-11-06T02:48:55.579Z,101295.81
2022-11-06T02:51:21.893Z,101290.63
2022-11-06T02:53:48.474Z,101292.53
2022-11-06T02:56:14.868Z,101290.06
2022-11-06T02:58:44.829Z,101287.16
2022-11-06T03:01:15.226Z,101294.63
2022-11-06T03:03:41.588Z,101283.84
2022-11-06T03:06:08.247Z,101288.41
2022-11-06T03:08:34.620Z,101291.34
2022-11-06T03:11:01.081Z,101290.50
2022-11-06T03:13:27.513Z,101295.88
2022-11-06T03:15:53.855Z,101297.75
2022-11-06T03:18:20.201Z,101289.91
2022-11-06T03:20:46.625Z,101293.41
2022-11-06T03:25:42.581Z,101290.94
2022-11-06T03:28:09.229Z,101288.47
2022-11-06T03:30:35.781Z,101299.25
2022-11-06T03:33:02.030Z,101290.34
2022-11-06T03:35:28.362Z,101278.97
2022-11-06T03:37:54.778Z,101282.50
2022-11-06T03:40:21.114Z,101277.31
2022-11-06T03:42:47.507Z,101273.56
2022-11-06T03:45:13.807Z,101272.78
2022-11-06T03:47:40.169Z,101274.41
2022-11-06T03:50:06.545Z,101281.06
2022-11-06T03:52:36.199Z,101281.06
2022-11-06T03:55:02.531Z,101279.44
2022-11-06T03:57:28.907Z,101280.47
2022-11-06T03:59:55.208Z,101272.63
2022-11-06T04:02:21.733Z,101276.34
2022-11-06T04:04:49.561Z,101273.66
2022-11-06T04:07:16.407Z,101266.63
2022-11-06T04:09:42.775Z,101268.47
2022-11-06T04:12:09.161Z,101278.66
2022-11-06T04:14:35.636Z,101281.38
2022-11-06T04:17:02.017Z,101284.06
2022-11-06T04:19:28.364Z,101282.19
2022-11-06T04:21:54.829Z,101266.25
2022-11-06T04:24:21.126Z,101275.41
2022-11-06T04:26:47.451Z,101269.38
2022-11-06T04:29:13.868Z,101273.94
2022-11-06T04:31:40.200Z,101259.63
2022-11-06T04:34:06.544Z,101260.69
2022-11-06T04:36:33.136Z,101260.69
2022-11-06T04:38:59.454Z,101257.16
2022-11-06T04:41:25.766Z,101254.69
2022-11-06T04:43:52.106Z,101259.28
2022-11-06T04:46:18.355Z,101260.28
2022-11-06T04:48:44.730Z,101264.03
2022-11-06T04:51:11.183Z,101266.94
2022-11-06T04:53:37.682Z,101265.09
2022-11-06T04:56:04.230Z,101249.75
2022-11-06T04:58:30.704Z,101256.19
2022-11-06T05:00:57.115Z,101258.88
2022-11-06T05:03:23.603Z,101248.31
2022-11-06T05:05:49.912Z,101251.22
2022-11-06T05:08:16.669Z,101244.81
2022-11-06T05:10:43.254Z,101253.13
2022-11-06T05:13:09.724Z,101241.50
2022-11-06T05:15:36.112Z,101242.56
2022-11-06T05:18:02.467Z,101238.22
2022-11-06T05:20:28.744Z,101229.53
2022-11-06T05:22:55.267Z,101237.41
2022-11-06T05:25:21.908Z,101232.00
2022-11-06T05:27:48.456Z,101241.97
2022-11-06T05:30:14.963Z,101243.22
2022-11-06T05:32:41.324Z,101235.97
2022-11-06T05:35:07.627Z,101238.88
2022-11-06T05:37:33.926Z,101226.25
2022-11-06T05:40:00.158Z,101228.34
2022-11-06T05:42:26.659Z,101230.22
2022-11-06T05:44:53.193Z,101230.22
2022-11-06T05:47:19.507Z,101235.81
2022-11-06T05:49:45.857Z,101233.34
2022-11-06T05:52:12.132Z,101229.81
2022-11-06T05:54:38.502Z,101230.88
2022-11-06T05:57:04.864Z,101231.72
2022-11-06T05:59:31.208Z,101238.16
2022-11-06T06:01:57.560Z,101235.47
2022-11-06T06:04:24.014Z,101231.94
2022-11-06T06:06:50.330Z,101231.56
2022-11-06T06:09:16.668Z,101240.22
2022-11-06T06:11:42.918Z,101242.34
2022-11-06T06:14:09.431Z,101237.16
2022-11-06T06:16:35.878Z,101240.91
2022-11-06T06:19:02.414Z,101236.56
2022-11-06T06:21:28.650Z,101244.63
2022-11-06T06:23:54.922Z,101243.81
2022-11-06T06:26:21.255Z,101252.94
2022-11-06T06:28:47.758Z,101252.94
2022-11-06T06:31:14.171Z,101249.66
2022-11-06T06:33:40.612Z,101255.03
2022-11-06T06:36:06.890Z,101260.63
2022-11-06T06:38:33.270Z,101264.97
2022-11-06T06:40:59.605Z,101261.47
2022-11-06T06:43:25.972Z,101263.53
2022-11-06T06:45:52.502Z,101271.41
2022-11-06T06:48:19.018Z,101272.66
2022-11-06T06:50:45.691Z,101271.84
2022-11-06T06:53:11.998Z,101265.66
2022-11-06T06:55:38.383Z,101274.78
2022-11-06T06:58:04.751Z,101267.50
2022-11-06T07:00:31.107Z,101268.56
2022-11-06T07:02:57.784Z,101269.38
2022-11-06T07:05:24.110Z,101273.94
2022-11-06T07:07:50.596Z,101272.31
2022-11-06T07:10:16.908Z,101273.09
2022-11-06T07:12:43.264Z,101272.31
2022-11-06T07:15:09.583Z,101276.84
2022-11-06T07:17:35.897Z,101277.69
2022-11-06T07:20:02.218Z,101284.94
2022-11-06T07:22:35.439Z,101282.22
2022-11-06T07:25:02.850Z,101278.69
2022-11-06T07:27:29.185Z,101276.25
2022-11-06T07:29:55.711Z,101278.94
2022-11-06T07:32:22.025Z,101270.88
2022-11-06T07:34:48.432Z,101277.06
2022-11-06T07:37:14.720Z,101281.88
2022-11-06T07:39:41.018Z,101272.94
2022-11-06T07:42:07.300Z,101279.16
2022-11-06T07:44:33.684Z,101282.06
2022-11-06T07:47:00.505Z,101282.88
2022-11-06T07:49:26.875Z,101281.25
2022-11-06T07:51:53.198Z,101292.84
2022-11-06T07:54:19.828Z,101285.81
2022-11-06T07:56:46.183Z,101287.47
2022-11-06T07:59:12.512Z,101284.97
2022-11-06T08:01:38.966Z,101280.44
2022-11-06T08:04:05.548Z,101268.00
2022-11-06T08:06:31.916Z,101279.59
2022-11-06T08:08:59.250Z,101280.44
2022-11-06T08:11:25.637Z,101272.56
2022-11-06T08:13:51.995Z,101277.13
2022-11-06T08:16:18.253Z,101270.09
2022-11-06T08:18:44.909Z,101276.31
2022-11-06T08:21:11.196Z,101277.56
2022-11-06T08:23:37.809Z,101273.22
2022-11-06T08:26:04.512Z,101271.38
2022-11-06T08:28:30.974Z,101264.94
2022-11-06T08:30:57.295Z,101263.88
2022-11-06T08:33:23.798Z,101263.88
2022-11-06T08:35:50.218Z,101259.34
2022-11-06T08:38:16.763Z,101254.78
2022-11-06T08:40:43.234Z,101252.91
2022-11-06T08:43:09.758Z,101248.78
2022-11-06T08:45:36.019Z,101249.63
2022-11-06T08:48:02.333Z,101240.94
2022-11-06T08:50:28.680Z,101238.03
2022-11-06T08:52:55.179Z,101241.06
2022-11-06T08:55:21.760Z,101241.06
2022-11-06T08:57:48.339Z,101237.38
2022-11-06T09:00:14.655Z,101226.81
2022-11-06T09:02:41.051Z,101225.56
2022-11-06T09:05:07.398Z,101229.88
2022-11-06T09:07:33.783Z,101231.09
2022-11-06T09:10:00.101Z,101229.44
2022-11-06T09:12:26.938Z,101224.28
2022-11-06T09:14:53.547Z,101222.41
2022-11-06T09:17:20.081Z,101230.50
2022-11-06T09:19:46.426Z,101231.09
2022-11-06T09:22:12.708Z,101231.09
2022-11-06T09:25:01.866Z,101235.63
2022-11-06T09:27:25.411Z,101230.50
2022-11-06T09:29:51.808Z,101225.91
2022-11-06T09:32:18.043Z,101219.47
2022-11-06T09:34:44.772Z,101216.78
2022-11-06T09:37:11.665Z,101217.03
2022-11-06T09:39:38.219Z,101208.97
2022-11-06T09:42:04.591Z,101202.53
2022-11-06T09:44:31.104Z,101200.63
2022-11-06T09:46:57.472Z,101196.69
2022-11-06T09:49:23.746Z,101205.81
2022-11-06T09:51:50.172Z,101202.31
2022-11-06T09:54:16.733Z,101190.50
2022-11-06T09:56:43.211Z,101185.53
2022-11-06T09:59:09.977Z,101201.69
2022-11-06T10:01:36.387Z,101204.16
2022-11-06T10:04:02.882Z,101184.94
2022-11-06T10:06:29.421Z,101190.91
2022-11-06T10:08:56.059Z,101199.44
2022-11-06T10:11:22.370Z,101200.06
2022-11-06T10:13:49.123Z,101200.28
2022-11-06T10:16:15.655Z,101180.84
2022-11-06T10:18:41.946Z,101183.75
2022-11-06T10:21:08.332Z,101175.47
2022-11-06T10:23:34.687Z,101173.34
2022-11-06T10:26:01.090Z,101169.81
2022-11-06T10:28:28.049Z,101166.91
2022-11-06T10:30:54.522Z,101172.06
2022-11-06T10:33:21.028Z,101166.47
2022-11-06T10:35:47.335Z,101160.50
2022-11-06T10:38:13.982Z,101152.78
2022-11-06T10:40:40.461Z,101156.53
2022-11-06T10:43:07.157Z,101147.41
2022-11-06T10:45:33.421Z,101152.78
2022-11-06T10:47:59.845Z,101152.44
2022-11-06T10:50:26.300Z,101151.59
2022-11-06T10:52:52.658Z,101139.78
2022-11-06T10:55:19.086Z,101143.88
2022-11-06T10:57:45.455Z,101141.19
2022-11-06T11:00:11.869Z,101135.00
2022-11-06T11:02:38.325Z,101139.34
2022-11-06T11:05:04.800Z,101135.38
2022-11-06T11:07:31.175Z,101129.41
2022-11-06T11:09:57.883Z,101121.91
2022-11-06T11:12:24.144Z,101115.47
2022-11-06T11:14:50.435Z,101120.06
2022-11-06T11:17:16.761Z,101117.59
2022-11-06T11:19:43.079Z,101104.69
2022-11-06T11:22:09.573Z,101094.75
2022-11-06T11:24:35.860Z,101106.13
2022-11-06T11:27:02.096Z,101096.94
2022-11-06T11:29:28.440Z,101094.28
2022-11-06T11:31:54.705Z,101090.59
2022-11-06T11:34:21.050Z,101088.56
2022-11-06T11:36:47.936Z,101083.09
2022-11-06T11:39:14.245Z,101074.22
2022-11-06T11:41:40.572Z,101070.16
2022-11-06T11:44:06.929Z,101070.84
2022-11-06T11:46:33.200Z,101067.38
2022-11-06T11:48:59.622Z,101064.78
2022-11-06T11:51:26.251Z,101058.09
2022-11-06T11:53:52.578Z,101065.50
2022-11-06T11:56:31.307Z,101060.00
2022-11-06T11:59:06.698Z,101058.47
2022-11-06T12:01:33.198Z,101058.81
2022-11-06T12:03:59.642Z,101055.44
2022-11-06T12:06:26.126Z,101050.38
2022-11-06T12:08:52.654Z,101054.28
2022-11-06T12:11:18.958Z,101050.75
2022-11-06T12:13:45.287Z,101050.53
2022-11-06T12:16:11.584Z,101041.25
2022-11-06T12:18:37.877Z,101039.72
2022-11-06T12:21:04.399Z,101048.41
2022-11-06T12:23:30.934Z,101042.56
2022-11-06T12:25:57.284Z,101037.97
2022-11-06T12:28:23.731Z,101038.06
2022-11-06T12:30:50.219Z,101033.84
2022-11-06T12:33:16.560Z,101033.38
2022-11-06T12:35:42.979Z,101030.19
2022-11-06T12:38:09.775Z,101026.66
2022-11-06T12:40:36.178Z,101030.31
2022-11-06T12:43:02.758Z,101031.47
2022-11-06T12:45:29.107Z,101025.00
2022-11-06T12:47:55.463Z,101025.34
2022-11-06T12:50:21.913Z,101017.84
2022-11-06T12:52:48.240Z,101017.38
2022-11-06T12:55:14.642Z,101014.53
2022-11-06T12:57:41.080Z,101016.16
2022-11-06T13:00:08.150Z,100999.72
2022-11-06T13:02:34.643Z,101001.13
2022-11-06T13:05:01.133Z,100989.00
2022-11-06T13:07:27.432Z,100993.09
2022-11-06T13:09:53.918Z,100989.34
2022-11-06T13:12:20.290Z,100990.16
2022-11-06T13:14:46.634Z,100989.19
2022-11-06T13:17:12.968Z,100978.97
2022-11-06T13:19:39.606Z,100979.31
2022-11-06T13:22:05.999Z,100981.78
2022-11-06T13:24:32.678Z,100980.50
2022-11-06T13:26:58.936Z,100974.03
2022-11-06T13:29:25.558Z,100978.47
2022-11-06T13:31:52.024Z,100973.88
2022-11-06T13:34:18.359Z,100963.06
2022-11-06T13:36:44.680Z,100962.91
2022-11-06T13:39:11.019Z,100971.38
2022-11-06T13:41:37.437Z,100965.06
2022-11-06T13:44:03.793Z,100961.78
2022-11-06T13:46:30.249Z,100957.09
2022-11-06T13:48:56.673Z,100951.63
2022-11-06T13:51:22.936Z,100954.81
2022-11-06T13:53:49.367Z,100953.16
2022-11-06T13:56:15.854Z,100950.16
2022-11-06T13:58:42.280Z,100947.69
2022-11-06T14:01:08.879Z,100949.00
2022-11-06T14:03:35.492Z,100945.91
2022-11-06T14:06:02.085Z,100945.53
2022-11-06T14:08:28.463Z,100940.88
2022-11-06T14:10:54.768Z,100939.50
2022-11-06T14:13:21.125Z,100931.63
2022-11-06T14:15:47.721Z,100925.03
2022-11-06T14:18:14.259Z,100921.75
2022-11-06T14:20:41.033Z,100924.72
2022-11-06T14:23:07.451Z,100918.72
2022-11-06T14:25:33.951Z,100911.69
2022-11-06T14:28:00.296Z,100922.72
2022-11-06T14:30:43.831Z,100917.00
2022-11-06T14:33:13.391Z,100918.94
2022-11-06T14:35:39.830Z,100913.22
2022-11-06T14:38:06.230Z,100908.84
2022-11-06T14:40:32.473Z,100904.53
2022-11-06T14:42:58.816Z,100901.25
2022-11-06T14:45:25.106Z,100892.56
2022-11-06T14:47:51.400Z,100904.44
2022-11-06T14:50:17.763Z,100911.16
2022-11-06T14:52:44.126Z,100907.84
2022-11-06T14:55:10.425Z,100904.59
2022-11-06T14:57:36.851Z,100910.47
2022-11-06T15:00:03.128Z,100901.78
2022-11-06T15:02:29.501Z,100904.72
2022-11-06T15:04:55.929Z,100894.41
2022-11-06T15:07:38.810Z,100890.31
2022-11-06T15:10:08.494Z,100893.50
2022-11-06T15:12:34.813Z,100881.91
2022-11-06T15:15:01.119Z,100891.84
2022-11-06T15:17:27.686Z,100889.91
2022-11-06T15:19:54.016Z,100887.44
2022-11-06T15:22:20.531Z,100886.84
2022-11-06T15:24:46.853Z,100875.47
2022-11-06T15:27:13.139Z,100870.56
2022-11-06T15:29:39.522Z,100860.81
2022-11-06T15:32:05.867Z,100869.41
2022-11-06T15:34:32.281Z,100866.13
2022-11-06T15:36:58.641Z,100863.66
2022-11-06T15:39:25.590Z,100860.38
2022-11-06T15:41:51.892Z,100851.72
2022-11-06T15:44:18.136Z,100850.31
2022-11-06T15:46:44.630Z,100850.53
2022-11-06T15:49:11.001Z,100858.84
2022-11-06T15:51:37.308Z,100847.72
2022-11-06T15:54:03.668Z,100846.34
2022-11-06T15:56:29.918Z,100845.50
2022-11-06T15:58:56.204Z,100836.03
2022-11-06T16:01:22.659Z,100844.34
2022-11-06T16:03:49.326Z,100838.38
2022-11-06T16:06:15.617Z,100841.31
2022-11-06T16:08:41.900Z,100840.94
2022-11-06T16:11:13.084Z,100833.94
2022-11-06T16:13:39.694Z,100846.63
2022-11-06T16:16:06.104Z,100840.63
2022-11-06T16:18:32.705Z,100840.63
2022-11-06T16:20:59.136Z,100845.69
2022-11-06T16:23:33.452Z,100852.09
2022-11-06T16:26:02.488Z,100852.38
2022-11-06T16:28:29.007Z,100847.22
2022-11-06T16:30:55.259Z,100842.06
2022-11-06T16:33:21.690Z,100837.97
2022-11-06T16:35:52.594Z,100847.69
2022-11-06T16:38:41.076Z,100836.34
2022-11-06T16:41:07.674Z,100836.78
2022-11-06T16:43:34.054Z,100826.25
2022-11-06T16:46:00.380Z,100833.78
2022-11-06T16:48:26.954Z,100834.00
2022-11-06T16:50:53.258Z,100825.09
2022-11-06T16:53:19.614Z,100829.06
2022-11-06T16:55:45.941Z,100826.63
2022-11-06T16:58:12.303Z,100821.44
2022-11-06T17:00:38.609Z,100815.50
2022-11-06T17:03:05.101Z,100819.50
2022-11-06T17:05:31.378Z,100816.78
2022-11-06T17:07:57.762Z,100810.81
2022-11-06T17:10:24.042Z,100805.66
2022-11-06T17:12:50.531Z,100810.00
2022-11-06T17:15:16.852Z,100810.69
2022-11-06T17:17:43.216Z,100818.78
2022-11-06T17:20:09.626Z,100817.16
2022-11-06T17:22:36.076Z,100814.47
2022-11-06T17:25:02.370Z,100816.56
2022-11-06T17:27:28.958Z,100816.81
2022-11-06T17:29:55.432Z,100810.59
2022-11-06T17:32:21.768Z,100807.91
2022-11-06T17:34:48.100Z,100808.97
2022-11-06T17:37:14.346Z,100796.53
2022-11-06T17:39:40.781Z,100820.78
2022-11-06T17:42:07.192Z,100811.28
2022-11-06T17:44:33.683Z,100808.84
2022-11-06T17:46:59.951Z,100809.66
2022-11-06T17:49:26.519Z,100812.34
2022-11-06T17:51:52.882Z,100804.50
2022-11-06T17:54:19.450Z,100808.25
2022-11-06T17:56:45.835Z,100805.56
2022-11-06T17:59:12.334Z,100810.97
2022-11-06T18:01:38.805Z,100803.94
2022-11-06T18:04:05.169Z,100807.69
2022-11-06T18:06:31.574Z,100809.78
2022-11-06T18:08:57.846Z,100809.78
2022-11-06T18:11:24.072Z,100801.94
2022-11-06T18:13:50.375Z,100803.81
2022-11-06T18:16:16.681Z,100801.13
2022-11-06T18:18:42.989Z,100797.63
2022-11-06T18:21:09.328Z,100801.13
2022-11-06T18:23:35.735Z,100805.94
2022-11-06T18:26:01.989Z,100812.38
2022-11-06T18:28:28.548Z,100815.06
2022-11-06T18:30:54.832Z,100815.28
2022-11-06T18:33:21.238Z,100811.78
2022-11-06T18:35:47.555Z,100823.59
2022-11-06T18:38:14.185Z,100815.53
2022-11-06T18:40:40.673Z,100809.34
2022-11-06T18:43:07.103Z,100813.28
2022-11-06T18:45:33.651Z,100810.59
2022-11-06T18:48:00.132Z,100810.84
2022-11-06T18:50:26.629Z,100813.53
2022-11-06T18:52:57.805Z,100797.59
2022-11-06T18:55:24.799Z,100808.38
2022-11-06T18:57:51.312Z,100806.75
2022-11-06T19:00:17.548Z,100793.28
2022-11-06T19:02:43.953Z,100791.38
2022-11-06T19:05:10.315Z,100793.50
2022-11-06T19:07:37.019Z,100792.66
2022-11-06T19:10:03.347Z,100792.66
2022-11-06T19:12:29.644Z,100788.34
2022-11-06T19:14:55.916Z,100786.44
2022-11-06T19:17:22.272Z,100793.13
2022-11-06T19:19:48.879Z,100793.13
2022-11-06T19:22:15.141Z,100786.09
2022-11-06T19:24:41.618Z,100789.88
2022-11-06T19:27:07.896Z,100789.03
2022-11-06T19:29:34.259Z,100784.94
2022-11-06T19:32:00.589Z,100783.31
2022-11-06T19:34:26.988Z,100785.78
2022-11-06T19:36:53.347Z,100779.56
2022-11-06T19:39:19.744Z,100784.13
2022-11-06T19:41:46.055Z,100787.88
2022-11-06T19:44:12.371Z,100789.75
2022-11-06T19:46:38.724Z,100782.72
2022-11-06T19:49:05.159Z,100785.41
2022-11-06T19:51:31.431Z,100787.28
2022-11-06T19:53:57.718Z,100790.22
2022-11-06T19:56:24.013Z,100789.38
2022-11-06T19:58:50.410Z,100798.28
2022-11-06T20:01:16.754Z,100788.34
2022-11-06T20:03:43.136Z,100791.28
2022-11-06T20:06:09.391Z,100794.44
2022-11-06T20:08:35.695Z,100797.13
2022-11-06T20:11:02.142Z,100794.44
2022-11-06T20:13:28.456Z,100800.03
2022-11-06T20:15:54.750Z,100791.97
2022-11-06T20:18:21.076Z,100799.25
2022-11-06T20:20:47.385Z,100795.72
2022-11-06T20:23:13.899Z,100793.25
2022-11-06T20:25:40.341Z,100790.56
2022-11-06T20:28:06.672Z,100784.59
2022-11-06T20:30:33.204Z,100791.84
2022-11-06T20:32:59.588Z,100787.53
2022-11-06T20:35:25.901Z,100786.69
2022-11-06T20:37:52.422Z,100780.50
2022-11-06T20:40:18.740Z,100781.78
2022-11-06T20:42:45.191Z,100780.75
2022-11-06T20:45:11.493Z,100785.28
2022-11-06T20:47:37.883Z,100781.78
2022-11-06T20:50:04.389Z,100782.03
2022-11-06T20:52:30.701Z,100777.66
2022-11-06T20:54:57.046Z,100779.34
2022-11-06T20:57:23.409Z,100780.13
2022-11-06T20:59:49.686Z,100774.19
2022-11-06T21:02:16.093Z,100772.53
2022-11-06T21:04:42.608Z,100779.56
2022-11-06T21:07:09.060Z,100775.22
2022-11-06T21:09:35.416Z,100760.13
2022-11-06T21:12:01.843Z,100758.50
2022-11-06T21:14:28.124Z,100760.94
2022-11-06T21:16:54.434Z,100760.13
2022-11-06T21:19:20.766Z,100756.84
2022-11-06T21:21:47.048Z,100750.63
2022-11-06T21:24:13.371Z,100746.53
2022-11-06T21:26:39.654Z,100742.00
2022-11-06T21:29:06.012Z,100751.94
2022-11-06T21:31:32.333Z,100742.78
2022-11-06T21:33:58.637Z,100739.31
2022-11-06T21:36:24.925Z,100741.16
2022-11-06T21:38:51.279Z,100731.69
2022-11-06T21:41:17.585Z,100730.84
2022-11-06T21:43:44.036Z,100720.09
2022-11-06T21:46:10.376Z,100720.91
2022-11-06T21:48:52.220Z,100709.31
2022-11-06T21:51:18.755Z,100696.09
2022-11-06T21:53:45.062Z,100701.25
2022-11-06T21:56:11.516Z,100696.94
2022-11-06T21:58:37.803Z,100698.22
2022-11-06T22:01:04.139Z,100699.03
2022-11-06T22:03:31.136Z,100693.66
2022-11-06T22:05:57.474Z,100685.59
2022-11-06T22:08:27.101Z,100681.50
2022-11-06T22:10:56.271Z,100685.00
2022-11-06T22:13:22.619Z,100675.06
2022-11-06T22:15:49.003Z,100672.59
2022-11-06T22:18:15.501Z,100674.69
2022-11-06T22:20:41.885Z,100670.38
2022-11-06T22:23:08.751Z,100674.69
2022-11-06T22:25:35.128Z,100661.50
2022-11-06T22:28:01.535Z,100661.50
2022-11-06T22:30:27.847Z,100652.59
2022-11-06T22:32:54.148Z,100648.84
2022-11-06T22:35:20.392Z,100648.50
2022-11-06T22:37:46.720Z,100642.88
2022-11-06T22:40:13.009Z,100644.97
2022-11-06T22:42:39.290Z,100640.41
2022-11-06T22:45:05.836Z,100644.19
2022-11-06T22:47:32.187Z,100640.66
2022-11-06T22:49:58.434Z,100636.34
2022-11-06T22:52:24.753Z,100633.88
2022-11-06T22:54:51.068Z,100641.72
2022-11-06T22:57:17.796Z,100641.72
2022-11-06T22:59:44.253Z,100644.63
2022-11-06T23:02:10.580Z,100647.31
2022-11-06T23:04:36.887Z,100643.81
2022-11-06T23:07:03.269Z,100640.53
2022-11-06T23:09:29.720Z,100643.00
2022-11-06T23:11:56.180Z,100636.78
2022-11-06T23:14:22.476Z,100633.28
2022-11-06T23:16:48.699Z,100622.28
2022-11-06T23:19:15.016Z,100617.63
2022-11-06T23:21:41.307Z,100612.00
2022-11-06T23:24:07.710Z,100603.34
2022-11-06T23:26:34.124Z,100599.84
2022-11-06T23:29:00.454Z,100610.34
2022-11-06T23:31:26.777Z,100604.63
2022-11-06T23:33:53.176Z,100614.94
2022-11-06T23:36:19.467Z,100612.47
2022-11-06T23:38:45.770Z,100602.78
2022-11-06T23:41:12.142Z,100607.56
2022-11-06T23:43:38.448Z,100607.56
2022-11-06T23:46:04.672Z,100612.59
2022-11-06T23:48:31.003Z,100614.00
2022-11-06T23:50:57.317Z,100623.13
2022-11-06T23:53:23.547Z,100615.28
2022-11-06T23:55:49.803Z,100610.47
2022-11-06T23:58:16.392Z,100615.06
